Terminal Aerodrome Forecast
Issued by NWS

Home | Current Version | Previous Version | Text Only | Print | Product List | Glossary On
Versions: 1 2 3 4 5 6 7 8 9 10 11 12 13 14 15 16 17 18 19 20 21 22 23 24
000
FTUS41 KCAR 172300
TAFPQI
TAF
KPQI 172333Z 1800/1824 VRB03KT P6SM VCSH OVC040
     FM180600 18004KT 6SM -SHRA BR OVC025
     FM181200 28008KT P6SM VCSH OVC030
     FM181400 32012KT P6SM BKN050
      AMD LTD TO CLD VIS AND WIND=

USA.gov is the U.S. government's official web portal to all federal, state and local government web resources and services.